WZZ3432 EBCI-UGKO
Flight info
| Callsign | WZZ3432 |
|---|---|
| Flight time | 3h 51m |
| Altitude | 35000 |
| Route | SOPOK Y863 OGLOR DCT BOMBI DCT BARSU DCT DEXIT DCT PESAT DCT TEGRI DCT UDROS DCT BAMUP UM859 KARDE DCT ROLIN DCT MAQQO |
| Aircraft | A320/M-SDE3FGHIRWY/LB1 |
Departure
| Time | 2026-04-25 11:30 |
|---|---|
| Airport | Brussels South Charleroi Airport (EBCI) |
Arrival
| Time | 2026-04-25 15:22 |
|---|---|
| Airport | David the Builder Kutaisi International Airport (UGKO) |
| Time | Latitude | Longitude | Altitude | Speed | Heading |
|---|---|---|---|---|---|
| 2026-04-25 11:16 | 50.46874 | 4.47095 | 613 ft | 0 kts | 335° |
| 2026-04-25 11:24 | 50.46873 | 4.47096 | 613 ft | 2 kts | 335° |
| 2026-04-25 11:25 | 50.46850 | 4.47112 | 628 ft | 4 kts | 335° |
| 2026-04-25 11:25 | 50.46831 | 4.47125 | 624 ft | 4 kts | 1° |
| 2026-04-25 11:25 | 50.46813 | 4.47109 | 621 ft | 3 kts | 65° |
| 2026-04-25 11:25 | 50.46806 | 4.47083 | 624 ft | 0 kts | 65° |
| 2026-04-25 11:28 | 50.46807 | 4.47089 | 625 ft | 3 kts | 65° |
| 2026-04-25 11:28 | 50.46844 | 4.47215 | 620 ft | 14 kts | 65° |
| 2026-04-25 11:28 | 50.46886 | 4.47360 | 619 ft | 15 kts | 65° |
| 2026-04-25 11:28 | 50.46932 | 4.47519 | 622 ft | 14 kts | 66° |
| 2026-04-25 11:29 | 50.46901 | 4.47623 | 624 ft | 12 kts | 153° |
| 2026-04-25 11:29 | 50.46820 | 4.47681 | 615 ft | 13 kts | 156° |
| 2026-04-25 11:29 | 50.46731 | 4.47733 | 621 ft | 14 kts | 177° |
| 2026-04-25 11:29 | 50.46663 | 4.47611 | 620 ft | 23 kts | 245° |
| 2026-04-25 11:30 | 50.46496 | 4.47040 | 625 ft | 91 kts | 245° |
| 2026-04-25 11:30 | 50.46155 | 4.45867 | 620 ft | 143 kts | 246° |
| 2026-04-25 11:30 | 50.45688 | 4.44287 | 847 ft | 162 kts | 245° |
| 2026-04-25 11:30 | 50.45234 | 4.42690 | 1523 ft | 160 kts | 248° |
| 2026-04-25 11:31 | 50.44784 | 4.41067 | 1915 ft | 171 kts | 249° |
| 2026-04-25 11:31 | 50.44267 | 4.39241 | 2078 ft | 195 kts | 248° |
| 2026-04-25 11:31 | 50.43677 | 4.37182 | 2294 ft | 219 kts | 248° |
| 2026-04-25 11:31 | 50.43045 | 4.35000 | 2754 ft | 236 kts | 246° |
| 2026-04-25 11:32 | 50.42363 | 4.32640 | 3502 ft | 239 kts | 247° |
| 2026-04-25 11:32 | 50.41675 | 4.30256 | 4309 ft | 241 kts | 247° |
| 2026-04-25 11:32 | 50.40820 | 4.27980 | 5186 ft | 245 kts | 227° |
| 2026-04-25 11:32 | 50.39403 | 4.26520 | 5844 ft | 249 kts | 196° |
| 2026-04-25 11:33 | 50.37684 | 4.26334 | 6529 ft | 251 kts | 167° |
| 2026-04-25 11:33 | 50.36117 | 4.27467 | 7154 ft | 251 kts | 139° |
| 2026-04-25 11:33 | 50.34773 | 4.29241 | 7816 ft | 254 kts | 137° |
| 2026-04-25 11:33 | 50.33613 | 4.31321 | 8484 ft | 255 kts | 117° |
| 2026-04-25 11:34 | 50.32990 | 4.33908 | 9087 ft | 259 kts | 98° |
| 2026-04-25 11:34 | 50.33001 | 4.36815 | 9330 ft | 277 kts | 75° |
| 2026-04-25 11:34 | 50.33474 | 4.39804 | 9835 ft | 287 kts | 73° |
| 2026-04-25 11:34 | 50.33957 | 4.42873 | 10363 ft | 297 kts | 74° |
| 2026-04-25 11:35 | 50.34462 | 4.46137 | 10525 ft | 320 kts | 75° |
| 2026-04-25 11:35 | 50.34997 | 4.49635 | 10679 ft | 340 kts | 75° |
| 2026-04-25 11:35 | 50.35550 | 4.53293 | 11161 ft | 349 kts | 75° |
| 2026-04-25 11:35 | 50.36109 | 4.57019 | 11762 ft | 353 kts | 75° |
| 2026-04-25 11:36 | 50.36673 | 4.60783 | 12362 ft | 357 kts | 76° |
| 2026-04-25 11:36 | 50.37242 | 4.64590 | 12975 ft | 361 kts | 75° |
| 2026-04-25 11:36 | 50.37815 | 4.68444 | 13599 ft | 365 kts | 76° |
| 2026-04-25 11:36 | 50.38393 | 4.72339 | 14166 ft | 369 kts | 76° |
| 2026-04-25 11:37 | 50.38979 | 4.76271 | 14687 ft | 372 kts | 76° |
| 2026-04-25 11:37 | 50.39572 | 4.80233 | 15225 ft | 375 kts | 76° |
| 2026-04-25 11:37 | 50.40171 | 4.84231 | 15769 ft | 378 kts | 76° |
| 2026-04-25 11:37 | 50.40773 | 4.88265 | 16309 ft | 381 kts | 76° |
| 2026-04-25 11:38 | 50.41376 | 4.92329 | 16841 ft | 384 kts | 76° |
| 2026-04-25 11:38 | 50.41979 | 4.96407 | 17408 ft | 386 kts | 76° |
| 2026-04-25 11:38 | 50.42584 | 5.00523 | 17977 ft | 389 kts | 76° |
| 2026-04-25 11:38 | 50.43191 | 5.04673 | 18529 ft | 391 kts | 76° |
| 2026-04-25 11:39 | 50.43803 | 5.08850 | 19004 ft | 395 kts | 76° |
| 2026-04-25 11:39 | 50.44416 | 5.13058 | 19472 ft | 399 kts | 76° |
| 2026-04-25 11:39 | 50.45038 | 5.17330 | 19923 ft | 403 kts | 76° |
| 2026-04-25 11:39 | 50.45662 | 5.21633 | 20410 ft | 406 kts | 76° |
| 2026-04-25 11:40 | 50.46287 | 5.25964 | 20895 ft | 410 kts | 76° |
| 2026-04-25 11:40 | 50.46912 | 5.30344 | 21362 ft | 413 kts | 78° |
| 2026-04-25 11:40 | 50.47194 | 5.34846 | 21796 ft | 418 kts | 90° |
| 2026-04-25 11:40 | 50.46854 | 5.39394 | 22222 ft | 422 kts | 103° |
| 2026-04-25 11:41 | 50.45904 | 5.43767 | 22617 ft | 426 kts | 115° |
| 2026-04-25 11:41 | 50.44377 | 5.47761 | 23007 ft | 429 kts | 128° |
| 2026-04-25 11:41 | 50.42353 | 5.51218 | 23375 ft | 432 kts | 136° |
| 2026-04-25 11:41 | 50.40199 | 5.54532 | 23752 ft | 435 kts | 136° |
| 2026-04-25 11:42 | 50.38027 | 5.57864 | 24086 ft | 438 kts | 136° |
| 2026-04-25 11:42 | 50.35841 | 5.61212 | 24421 ft | 441 kts | 136° |
| 2026-04-25 11:42 | 50.33643 | 5.64581 | 24743 ft | 443 kts | 136° |
| 2026-04-25 11:42 | 50.31431 | 5.67970 | 25059 ft | 446 kts | 136° |
| 2026-04-25 11:43 | 50.29211 | 5.71369 | 25390 ft | 448 kts | 136° |
| 2026-04-25 11:43 | 50.27149 | 5.75031 | 25698 ft | 450 kts | 126° |
| 2026-04-25 11:43 | 50.25495 | 5.79121 | 25993 ft | 453 kts | 117° |
| 2026-04-25 11:43 | 50.24279 | 5.83589 | 26296 ft | 454 kts | 107° |
| 2026-04-25 11:44 | 50.23445 | 5.88351 | 26596 ft | 456 kts | 103° |
| 2026-04-25 11:44 | 50.22658 | 5.93087 | 26914 ft | 458 kts | 104° |
| 2026-04-25 11:44 | 50.21843 | 5.97902 | 27216 ft | 460 kts | 104° |
| 2026-04-25 11:44 | 50.21016 | 6.02734 | 27527 ft | 462 kts | 104° |
| 2026-04-25 11:45 | 50.20182 | 6.07597 | 27837 ft | 464 kts | 104° |
| 2026-04-25 11:45 | 50.19345 | 6.12457 | 28226 ft | 463 kts | 104° |
| 2026-04-25 11:45 | 50.18673 | 6.17358 | 28659 ft | 461 kts | 96° |
| 2026-04-25 11:45 | 50.18470 | 6.22337 | 29083 ft | 458 kts | 87° |
| 2026-04-25 11:46 | 50.18701 | 6.27280 | 29518 ft | 456 kts | 82° |
| 2026-04-25 11:46 | 50.19016 | 6.32201 | 29948 ft | 455 kts | 82° |
| 2026-04-25 11:46 | 50.19327 | 6.37116 | 30352 ft | 455 kts | 82° |
| 2026-04-25 11:46 | 50.19633 | 6.42021 | 30735 ft | 454 kts | 83° |
| 2026-04-25 11:47 | 50.19934 | 6.46917 | 31102 ft | 453 kts | 83° |
| 2026-04-25 11:47 | 50.20231 | 6.51802 | 31491 ft | 452 kts | 83° |
| 2026-04-25 11:47 | 50.20528 | 6.56679 | 31871 ft | 451 kts | 83° |
| 2026-04-25 11:47 | 50.20816 | 6.61506 | 32239 ft | 450 kts | 84° |
| 2026-04-25 11:48 | 50.20844 | 6.66404 | 32599 ft | 451 kts | 94° |
| 2026-04-25 11:48 | 50.20539 | 6.71275 | 32965 ft | 451 kts | 95° |
| 2026-04-25 11:48 | 50.20233 | 6.76075 | 33312 ft | 450 kts | 95° |
| 2026-04-25 11:48 | 50.19929 | 6.80934 | 33680 ft | 449 kts | 95° |
| 2026-04-25 11:49 | 50.19626 | 6.85787 | 34029 ft | 449 kts | 95° |
| 2026-04-25 11:49 | 50.19321 | 6.90632 | 34329 ft | 449 kts | 95° |
| 2026-04-25 11:49 | 50.19012 | 6.95469 | 34570 ft | 448 kts | 95° |
| 2026-04-25 11:49 | 50.18700 | 7.00307 | 34809 ft | 448 kts | 95° |
| 2026-04-25 11:50 | 50.18387 | 7.05139 | 35049 ft | 448 kts | 95° |
| 2026-04-25 11:50 | 50.18074 | 7.09979 | 35156 ft | 450 kts | 95° |
| 2026-04-25 11:50 | 50.17433 | 7.19809 | 35167 ft | 462 kts | 95° |
| 2026-04-25 11:51 | 50.16764 | 7.29835 | 35165 ft | 466 kts | 95° |
| 2026-04-25 11:51 | 50.16080 | 7.39906 | 35160 ft | 467 kts | 95° |
| 2026-04-25 11:52 | 50.15391 | 7.49968 | 35161 ft | 467 kts | 95° |
| 2026-04-25 11:52 | 50.14714 | 7.59718 | 35151 ft | 466 kts | 95° |
| 2026-04-25 11:53 | 50.14005 | 7.69792 | 35161 ft | 467 kts | 95° |
| 2026-04-25 11:53 | 50.13290 | 7.79788 | 35159 ft | 467 kts | 95° |
| 2026-04-25 11:54 | 50.12566 | 7.89849 | 35167 ft | 467 kts | 95° |
| 2026-04-25 11:55 | 50.11461 | 8.04952 | 35164 ft | 468 kts | 95° |
| 2026-04-25 11:55 | 50.10709 | 8.15011 | 35164 ft | 468 kts | 95° |
| 2026-04-25 11:56 | 50.09949 | 8.25063 | 35162 ft | 468 kts | 95° |
| 2026-04-25 11:56 | 50.09184 | 8.35143 | 35164 ft | 469 kts | 95° |
| 2026-04-25 11:57 | 50.08419 | 8.45223 | 35161 ft | 469 kts | 95° |
| 2026-04-25 11:57 | 50.07636 | 8.55310 | 35166 ft | 469 kts | 95° |
| 2026-04-25 11:58 | 50.06842 | 8.65393 | 35164 ft | 469 kts | 95° |
| 2026-04-25 11:58 | 50.06025 | 8.75477 | 35154 ft | 470 kts | 95° |
| 2026-04-25 11:59 | 50.05214 | 8.85557 | 35155 ft | 470 kts | 95° |
| 2026-04-25 11:59 | 50.04559 | 8.93946 | 35150 ft | 470 kts | 95° |
| 2026-04-25 12:00 | 50.03368 | 9.09075 | 35148 ft | 470 kts | 95° |
| 2026-04-25 12:01 | 50.02147 | 9.24219 | 35149 ft | 471 kts | 95° |
| 2026-04-25 12:01 | 50.01314 | 9.34327 | 35143 ft | 471 kts | 95° |
| 2026-04-25 12:02 | 50.00043 | 9.49497 | 35141 ft | 471 kts | 95° |
| 2026-04-25 12:02 | 49.99185 | 9.59588 | 35139 ft | 471 kts | 95° |
| 2026-04-25 12:03 | 49.98328 | 9.69695 | 35135 ft | 471 kts | 95° |
| 2026-04-25 12:03 | 49.97457 | 9.79789 | 35138 ft | 471 kts | 95° |
| 2026-04-25 12:04 | 49.96581 | 9.89813 | 35140 ft | 471 kts | 96° |
| 2026-04-25 12:04 | 49.95692 | 9.99897 | 35143 ft | 471 kts | 96° |
| 2026-04-25 12:05 | 49.94797 | 10.09977 | 35138 ft | 471 kts | 96° |
| 2026-04-25 12:05 | 49.93892 | 10.20055 | 35138 ft | 471 kts | 96° |
| 2026-04-25 12:06 | 49.92973 | 10.30135 | 35139 ft | 472 kts | 96° |
| 2026-04-25 12:06 | 49.91690 | 10.39693 | 35130 ft | 474 kts | 108° |
| 2026-04-25 12:07 | 49.88879 | 10.48961 | 35125 ft | 476 kts | 116° |
| 2026-04-25 12:07 | 49.85864 | 10.58107 | 35121 ft | 476 kts | 116° |
| 2026-04-25 12:08 | 49.82851 | 10.67259 | 35117 ft | 477 kts | 117° |
| 2026-04-25 12:08 | 49.79835 | 10.76415 | 35106 ft | 478 kts | 117° |
| 2026-04-25 12:09 | 49.76789 | 10.85579 | 35104 ft | 479 kts | 117° |
| 2026-04-25 12:09 | 49.73732 | 10.94735 | 35101 ft | 479 kts | 118° |
| 2026-04-25 12:10 | 49.70669 | 11.03882 | 35102 ft | 480 kts | 118° |
| 2026-04-25 12:10 | 49.67593 | 11.13034 | 35102 ft | 480 kts | 118° |
| 2026-04-25 12:11 | 49.64510 | 11.22181 | 35101 ft | 480 kts | 118° |
| 2026-04-25 12:11 | 49.61412 | 11.31329 | 35099 ft | 481 kts | 119° |
| 2026-04-25 12:12 | 49.58832 | 11.38924 | 35098 ft | 481 kts | 119° |
| 2026-04-25 12:12 | 49.55198 | 11.49594 | 35093 ft | 481 kts | 119° |
| 2026-04-25 12:13 | 49.52073 | 11.58711 | 35085 ft | 482 kts | 119° |
| 2026-04-25 12:13 | 49.48951 | 11.67811 | 35087 ft | 481 kts | 119° |
| 2026-04-25 12:14 | 49.45840 | 11.76850 | 35100 ft | 481 kts | 120° |
| 2026-04-25 12:14 | 49.42674 | 11.85998 | 35103 ft | 481 kts | 120° |
| 2026-04-25 12:15 | 49.39526 | 11.95059 | 35107 ft | 481 kts | 120° |
| 2026-04-25 12:15 | 49.36394 | 12.04060 | 35107 ft | 481 kts | 120° |
| 2026-04-25 12:16 | 49.33212 | 12.13174 | 35104 ft | 481 kts | 120° |
| 2026-04-25 12:16 | 49.30053 | 12.22192 | 35097 ft | 480 kts | 120° |
| 2026-04-25 12:17 | 49.26903 | 12.31148 | 35099 ft | 480 kts | 120° |
| 2026-04-25 12:17 | 49.23721 | 12.40149 | 35093 ft | 480 kts | 120° |
| 2026-04-25 12:18 | 49.20540 | 12.49135 | 35092 ft | 480 kts | 120° |
| 2026-04-25 12:18 | 49.17351 | 12.58102 | 35091 ft | 480 kts | 121° |
| 2026-04-25 12:19 | 49.12563 | 12.71496 | 35090 ft | 480 kts | 121° |
| 2026-04-25 12:20 | 49.09424 | 12.80249 | 35088 ft | 480 kts | 121° |
| 2026-04-25 12:20 | 49.06210 | 12.89186 | 35079 ft | 481 kts | 121° |
| 2026-04-25 12:21 | 49.02980 | 12.98131 | 35082 ft | 481 kts | 121° |
| 2026-04-25 12:21 | 48.99750 | 13.07044 | 35077 ft | 481 kts | 121° |
| 2026-04-25 12:22 | 48.96510 | 13.15963 | 35078 ft | 481 kts | 121° |
| 2026-04-25 12:22 | 48.93256 | 13.24869 | 35078 ft | 482 kts | 121° |
| 2026-04-25 12:23 | 48.89997 | 13.33774 | 35075 ft | 482 kts | 122° |
| 2026-04-25 12:23 | 48.86730 | 13.42669 | 35071 ft | 482 kts | 122° |
| 2026-04-25 12:24 | 48.83452 | 13.51557 | 35068 ft | 482 kts | 122° |
| 2026-04-25 12:24 | 48.80170 | 13.60427 | 35069 ft | 483 kts | 122° |
| 2026-04-25 12:25 | 48.76871 | 13.69311 | 35066 ft | 483 kts | 122° |
| 2026-04-25 12:25 | 48.74042 | 13.78569 | 35068 ft | 485 kts | 116° |
| 2026-04-25 12:26 | 48.71294 | 13.87910 | 35066 ft | 486 kts | 116° |
| 2026-04-25 12:26 | 48.68525 | 13.97248 | 35064 ft | 486 kts | 116° |
| 2026-04-25 12:27 | 48.65759 | 14.06569 | 35063 ft | 486 kts | 116° |
| 2026-04-25 12:27 | 48.62993 | 14.15893 | 35065 ft | 486 kts | 116° |
| 2026-04-25 12:28 | 48.60216 | 14.25210 | 35066 ft | 486 kts | 116° |
| 2026-04-25 12:28 | 48.57426 | 14.34514 | 35057 ft | 487 kts | 117° |
| 2026-04-25 12:29 | 48.54620 | 14.43828 | 35061 ft | 487 kts | 117° |
| 2026-04-25 12:29 | 48.51830 | 14.53064 | 35058 ft | 487 kts | 117° |
| 2026-04-25 12:30 | 48.49009 | 14.62344 | 35056 ft | 487 kts | 117° |
| 2026-04-25 12:30 | 48.46178 | 14.71628 | 35056 ft | 487 kts | 117° |
| 2026-04-25 12:31 | 48.43346 | 14.80897 | 35051 ft | 487 kts | 117° |
| 2026-04-25 12:31 | 48.40510 | 14.90155 | 35047 ft | 487 kts | 117° |
| 2026-04-25 12:32 | 48.37665 | 14.99422 | 35039 ft | 487 kts | 117° |
| 2026-04-25 12:32 | 48.34806 | 15.08654 | 35043 ft | 487 kts | 117° |
| 2026-04-25 12:33 | 48.31939 | 15.17880 | 35040 ft | 487 kts | 117° |
| 2026-04-25 12:33 | 48.29093 | 15.27040 | 35034 ft | 487 kts | 117° |
| 2026-04-25 12:34 | 48.26222 | 15.36242 | 35033 ft | 487 kts | 117° |
| 2026-04-25 12:34 | 48.23339 | 15.45427 | 35028 ft | 487 kts | 117° |
| 2026-04-25 12:35 | 48.20446 | 15.54616 | 35025 ft | 487 kts | 117° |
| 2026-04-25 12:35 | 48.17551 | 15.63786 | 35024 ft | 487 kts | 117° |
| 2026-04-25 12:36 | 48.14650 | 15.72940 | 35022 ft | 487 kts | 117° |
| 2026-04-25 12:36 | 48.11741 | 15.82077 | 35018 ft | 487 kts | 117° |
| 2026-04-25 12:37 | 48.08822 | 15.91211 | 35016 ft | 487 kts | 117° |
| 2026-04-25 12:37 | 48.05901 | 16.00331 | 35004 ft | 486 kts | 117° |
| 2026-04-25 12:38 | 48.03001 | 16.09374 | 35009 ft | 487 kts | 117° |
| 2026-04-25 12:38 | 48.00067 | 16.18469 | 35003 ft | 486 kts | 118° |
| 2026-04-25 12:39 | 47.97117 | 16.27550 | 34997 ft | 486 kts | 118° |
| 2026-04-25 12:39 | 47.94164 | 16.36621 | 35002 ft | 486 kts | 118° |
| 2026-04-25 12:40 | 47.91205 | 16.45691 | 34996 ft | 486 kts | 118° |
| 2026-04-25 12:40 | 47.88236 | 16.54760 | 34992 ft | 487 kts | 118° |
| 2026-04-25 12:41 | 47.85264 | 16.63821 | 34989 ft | 487 kts | 118° |
| 2026-04-25 12:41 | 47.82277 | 16.72873 | 34991 ft | 487 kts | 118° |
| 2026-04-25 12:42 | 47.79283 | 16.81911 | 34990 ft | 487 kts | 118° |
| 2026-04-25 12:42 | 47.76281 | 16.90950 | 35000 ft | 487 kts | 118° |
| 2026-04-25 12:43 | 47.73275 | 16.99981 | 34999 ft | 488 kts | 118° |
| 2026-04-25 12:43 | 47.69266 | 17.11991 | 35009 ft | 488 kts | 118° |
| 2026-04-25 12:44 | 47.66264 | 17.21016 | 35011 ft | 488 kts | 118° |
| 2026-04-25 12:45 | 47.61743 | 17.34538 | 35021 ft | 488 kts | 118° |
| 2026-04-25 12:45 | 47.57209 | 17.48038 | 35022 ft | 488 kts | 118° |
| 2026-04-25 12:46 | 47.54173 | 17.57042 | 35024 ft | 488 kts | 118° |
| 2026-04-25 12:46 | 47.51134 | 17.66024 | 35022 ft | 488 kts | 118° |
| 2026-04-25 12:47 | 47.48077 | 17.74999 | 35021 ft | 489 kts | 118° |
| 2026-04-25 12:47 | 47.45013 | 17.83987 | 35021 ft | 489 kts | 118° |
| 2026-04-25 12:48 | 47.41945 | 17.92956 | 35020 ft | 489 kts | 118° |
| 2026-04-25 12:48 | 47.38867 | 18.01918 | 35019 ft | 489 kts | 118° |
| 2026-04-25 12:49 | 47.35779 | 18.10875 | 35019 ft | 489 kts | 118° |
| 2026-04-25 12:49 | 47.32706 | 18.19763 | 35013 ft | 490 kts | 118° |
| 2026-04-25 12:50 | 47.29589 | 18.28745 | 35011 ft | 490 kts | 118° |
| 2026-04-25 12:50 | 47.26483 | 18.37674 | 35008 ft | 490 kts | 118° |
| 2026-04-25 12:51 | 47.23387 | 18.46526 | 35006 ft | 490 kts | 118° |
| 2026-04-25 12:51 | 47.20269 | 18.55426 | 35004 ft | 490 kts | 118° |
| 2026-04-25 12:52 | 47.17142 | 18.64317 | 35005 ft | 489 kts | 118° |
| 2026-04-25 12:52 | 47.14008 | 18.73188 | 35004 ft | 489 kts | 118° |
| 2026-04-25 12:53 | 47.10869 | 18.82060 | 34998 ft | 489 kts | 118° |
| 2026-04-25 12:53 | 47.07724 | 18.90910 | 34997 ft | 489 kts | 118° |
| 2026-04-25 12:54 | 47.04566 | 18.99749 | 34997 ft | 489 kts | 118° |
| 2026-04-25 12:54 | 47.01402 | 19.08590 | 34996 ft | 489 kts | 118° |
| 2026-04-25 12:55 | 46.98778 | 19.15923 | 34994 ft | 489 kts | 118° |
| 2026-04-25 12:55 | 46.95069 | 19.26239 | 34995 ft | 490 kts | 118° |
| 2026-04-25 12:56 | 46.91884 | 19.35034 | 34997 ft | 490 kts | 118° |
| 2026-04-25 12:56 | 46.88690 | 19.43835 | 35001 ft | 490 kts | 118° |
| 2026-04-25 12:57 | 46.85489 | 19.52640 | 35005 ft | 490 kts | 118° |
| 2026-04-25 12:57 | 46.82309 | 19.61372 | 35007 ft | 490 kts | 118° |
| 2026-04-25 12:58 | 46.79091 | 19.70144 | 35004 ft | 490 kts | 119° |
| 2026-04-25 12:58 | 46.75870 | 19.78896 | 35005 ft | 490 kts | 118° |
| 2026-04-25 12:59 | 46.72652 | 19.87657 | 35003 ft | 490 kts | 118° |
| 2026-04-25 12:59 | 46.69427 | 19.96384 | 35001 ft | 490 kts | 119° |
| 2026-04-25 13:00 | 46.66727 | 20.03652 | 34999 ft | 490 kts | 119° |
| 2026-04-25 13:00 | 46.62994 | 20.13676 | 34997 ft | 490 kts | 119° |
| 2026-04-25 13:01 | 46.59746 | 20.22389 | 34996 ft | 490 kts | 119° |
| 2026-04-25 13:01 | 46.56488 | 20.31087 | 34998 ft | 490 kts | 119° |
| 2026-04-25 13:02 | 46.53221 | 20.39778 | 34999 ft | 490 kts | 119° |
| 2026-04-25 13:02 | 46.49967 | 20.48407 | 34996 ft | 490 kts | 119° |
| 2026-04-25 13:03 | 46.46693 | 20.57067 | 34995 ft | 490 kts | 119° |
| 2026-04-25 13:03 | 46.43405 | 20.65736 | 35001 ft | 490 kts | 119° |
| 2026-04-25 13:04 | 46.40110 | 20.74403 | 35005 ft | 490 kts | 119° |
| 2026-04-25 13:04 | 46.36833 | 20.82997 | 35005 ft | 490 kts | 119° |
| 2026-04-25 13:05 | 46.33527 | 20.91628 | 35004 ft | 490 kts | 119° |
| 2026-04-25 13:05 | 46.30211 | 21.00256 | 35009 ft | 490 kts | 119° |
| 2026-04-25 13:06 | 46.26889 | 21.08861 | 35015 ft | 490 kts | 118° |
| 2026-04-25 13:06 | 46.24015 | 21.17767 | 35018 ft | 489 kts | 113° |
| 2026-04-25 13:07 | 46.21231 | 21.26734 | 35018 ft | 489 kts | 113° |
| 2026-04-25 13:07 | 46.18432 | 21.35688 | 35020 ft | 489 kts | 113° |
| 2026-04-25 13:08 | 46.15628 | 21.44630 | 35010 ft | 489 kts | 113° |
| 2026-04-25 13:08 | 46.12825 | 21.53565 | 35009 ft | 489 kts | 113° |
| 2026-04-25 13:09 | 46.10017 | 21.62488 | 35004 ft | 489 kts | 113° |
| 2026-04-25 13:09 | 46.07226 | 21.71327 | 35004 ft | 489 kts | 113° |
| 2026-04-25 13:10 | 46.04400 | 21.80230 | 35003 ft | 489 kts | 114° |
| 2026-04-25 13:10 | 46.01561 | 21.89120 | 35005 ft | 488 kts | 114° |
| 2026-04-25 13:11 | 45.98725 | 21.97998 | 35003 ft | 488 kts | 113° |
| 2026-04-25 13:11 | 45.95883 | 22.06859 | 34993 ft | 488 kts | 114° |
| 2026-04-25 13:12 | 45.93031 | 22.15707 | 34993 ft | 488 kts | 114° |
| 2026-04-25 13:12 | 45.90658 | 22.23059 | 34994 ft | 488 kts | 114° |
| 2026-04-25 13:13 | 45.87320 | 22.33381 | 35001 ft | 488 kts | 114° |
| 2026-04-25 13:13 | 45.84449 | 22.42216 | 35001 ft | 488 kts | 114° |
| 2026-04-25 13:14 | 45.81578 | 22.51017 | 35002 ft | 488 kts | 114° |
| 2026-04-25 13:14 | 45.78695 | 22.59820 | 35003 ft | 487 kts | 114° |
| 2026-04-25 13:15 | 45.75814 | 22.68590 | 35005 ft | 487 kts | 114° |
| 2026-04-25 13:15 | 45.72917 | 22.77369 | 35010 ft | 487 kts | 114° |
| 2026-04-25 13:16 | 45.70025 | 22.86116 | 35003 ft | 486 kts | 114° |
| 2026-04-25 13:16 | 45.67145 | 22.94796 | 35003 ft | 486 kts | 114° |
| 2026-04-25 13:17 | 45.64236 | 23.03522 | 35004 ft | 486 kts | 114° |
| 2026-04-25 13:17 | 45.61325 | 23.12245 | 35003 ft | 486 kts | 114° |
| 2026-04-25 13:18 | 45.58403 | 23.20952 | 35008 ft | 486 kts | 114° |
| 2026-04-25 13:18 | 45.55485 | 23.29640 | 35012 ft | 486 kts | 114° |
| 2026-04-25 13:19 | 45.52558 | 23.38333 | 35008 ft | 485 kts | 114° |
| 2026-04-25 13:19 | 45.50592 | 23.44125 | 35009 ft | 485 kts | 114° |
| 2026-04-25 13:20 | 45.46671 | 23.55659 | 35006 ft | 486 kts | 114° |
| 2026-04-25 13:20 | 45.43731 | 23.64307 | 35004 ft | 485 kts | 114° |
| 2026-04-25 13:21 | 45.40780 | 23.72960 | 35006 ft | 485 kts | 114° |
| 2026-04-25 13:21 | 45.37826 | 23.81582 | 35002 ft | 485 kts | 114° |
| 2026-04-25 13:22 | 45.34863 | 23.90210 | 35003 ft | 485 kts | 114° |
| 2026-04-25 13:23 | 45.30424 | 24.03058 | 35009 ft | 485 kts | 114° |
| 2026-04-25 13:23 | 45.27425 | 24.11696 | 35009 ft | 484 kts | 114° |
| 2026-04-25 13:24 | 45.24455 | 24.20214 | 35012 ft | 484 kts | 114° |
| 2026-04-25 13:24 | 45.21473 | 24.28773 | 35006 ft | 484 kts | 114° |
| 2026-04-25 13:25 | 45.18490 | 24.37299 | 35014 ft | 483 kts | 114° |
| 2026-04-25 13:25 | 45.15499 | 24.45827 | 35014 ft | 483 kts | 114° |
| 2026-04-25 13:26 | 45.12498 | 24.54345 | 35014 ft | 482 kts | 114° |
| 2026-04-25 13:26 | 45.09489 | 24.62830 | 35016 ft | 482 kts | 114° |
| 2026-04-25 13:27 | 45.06484 | 24.71301 | 35019 ft | 481 kts | 114° |
| 2026-04-25 13:27 | 45.03488 | 24.79754 | 35017 ft | 480 kts | 114° |
| 2026-04-25 13:28 | 45.00486 | 24.88191 | 35020 ft | 480 kts | 114° |
| 2026-04-25 13:28 | 44.97467 | 24.96612 | 35015 ft | 480 kts | 114° |
| 2026-04-25 13:29 | 44.94439 | 25.05025 | 35016 ft | 480 kts | 114° |
| 2026-04-25 13:29 | 44.91416 | 25.13420 | 35013 ft | 479 kts | 114° |
| 2026-04-25 13:30 | 44.86891 | 25.25926 | 35011 ft | 479 kts | 114° |
| 2026-04-25 13:31 | 44.82335 | 25.38465 | 35014 ft | 479 kts | 114° |
| 2026-04-25 13:31 | 44.79292 | 25.46812 | 35018 ft | 479 kts | 115° |
| 2026-04-25 13:32 | 44.76741 | 25.53796 | 35017 ft | 479 kts | 115° |
| 2026-04-25 13:32 | 44.73714 | 25.62069 | 35021 ft | 478 kts | 115° |
| 2026-04-25 13:33 | 44.71798 | 25.67275 | 35022 ft | 478 kts | 115° |
| 2026-04-25 13:33 | 44.68739 | 25.75565 | 35024 ft | 477 kts | 115° |
| 2026-04-25 13:34 | 44.65686 | 25.83844 | 35026 ft | 477 kts | 115° |
| 2026-04-25 13:34 | 44.62630 | 25.92102 | 35025 ft | 476 kts | 115° |
| 2026-04-25 13:35 | 44.59568 | 26.00342 | 35027 ft | 476 kts | 115° |
| 2026-04-25 13:35 | 44.56499 | 26.08558 | 35026 ft | 475 kts | 115° |
| 2026-04-25 13:36 | 44.53436 | 26.16758 | 35030 ft | 474 kts | 115° |
| 2026-04-25 13:36 | 44.50394 | 26.24870 | 35026 ft | 473 kts | 115° |
| 2026-04-25 13:37 | 44.47319 | 26.33028 | 35022 ft | 473 kts | 115° |
| 2026-04-25 13:37 | 44.44249 | 26.41170 | 35021 ft | 473 kts | 115° |
| 2026-04-25 13:38 | 44.41176 | 26.49298 | 35018 ft | 472 kts | 116° |
| 2026-04-25 13:38 | 44.38095 | 26.57413 | 35013 ft | 472 kts | 116° |
| 2026-04-25 13:39 | 44.35010 | 26.65522 | 35016 ft | 472 kts | 116° |
| 2026-04-25 13:39 | 44.31933 | 26.73607 | 35014 ft | 472 kts | 116° |
| 2026-04-25 13:40 | 44.28861 | 26.81622 | 35009 ft | 471 kts | 116° |
| 2026-04-25 13:40 | 44.25762 | 26.89667 | 35009 ft | 470 kts | 116° |
| 2026-04-25 13:41 | 44.22669 | 26.97706 | 35006 ft | 470 kts | 116° |
| 2026-04-25 13:41 | 44.19578 | 27.05724 | 35000 ft | 469 kts | 116° |
| 2026-04-25 13:42 | 44.16478 | 27.13722 | 34993 ft | 469 kts | 116° |
| 2026-04-25 13:42 | 44.13380 | 27.21709 | 34993 ft | 469 kts | 116° |
| 2026-04-25 13:43 | 44.10273 | 27.29685 | 34994 ft | 469 kts | 116° |
| 2026-04-25 13:43 | 44.07166 | 27.37654 | 34990 ft | 468 kts | 117° |
| 2026-04-25 13:44 | 44.04058 | 27.45601 | 34989 ft | 468 kts | 117° |
| 2026-04-25 13:44 | 44.00938 | 27.53542 | 34989 ft | 468 kts | 117° |
| 2026-04-25 13:45 | 43.97806 | 27.61479 | 34986 ft | 468 kts | 117° |
| 2026-04-25 13:45 | 43.94675 | 27.69398 | 34990 ft | 468 kts | 117° |
| 2026-04-25 13:46 | 43.91544 | 27.77310 | 34988 ft | 468 kts | 117° |
| 2026-04-25 13:46 | 43.88408 | 27.85208 | 34989 ft | 467 kts | 117° |
| 2026-04-25 13:47 | 43.85272 | 27.93080 | 34994 ft | 467 kts | 117° |
| 2026-04-25 13:47 | 43.82132 | 28.00951 | 34997 ft | 467 kts | 117° |
| 2026-04-25 13:48 | 43.78987 | 28.08807 | 35003 ft | 466 kts | 117° |
| 2026-04-25 13:48 | 43.75837 | 28.16650 | 35004 ft | 466 kts | 117° |
| 2026-04-25 13:49 | 43.72685 | 28.24482 | 35012 ft | 466 kts | 117° |
| 2026-04-25 13:49 | 43.69531 | 28.32303 | 35015 ft | 466 kts | 117° |
| 2026-04-25 13:50 | 43.66364 | 28.40108 | 35021 ft | 466 kts | 117° |
| 2026-04-25 13:50 | 43.63286 | 28.47676 | 35027 ft | 465 kts | 117° |
| 2026-04-25 13:51 | 43.60118 | 28.55453 | 35033 ft | 465 kts | 117° |
| 2026-04-25 13:51 | 43.56951 | 28.63231 | 35037 ft | 465 kts | 117° |
| 2026-04-25 13:52 | 43.53779 | 28.71003 | 35042 ft | 465 kts | 117° |
| 2026-04-25 13:52 | 43.50593 | 28.78761 | 35043 ft | 465 kts | 118° |
| 2026-04-25 13:53 | 43.47399 | 28.86501 | 35042 ft | 465 kts | 118° |
| 2026-04-25 13:53 | 43.44202 | 28.94248 | 35042 ft | 465 kts | 118° |
| 2026-04-25 13:54 | 43.41006 | 29.01985 | 35041 ft | 465 kts | 118° |
| 2026-04-25 13:54 | 43.37798 | 29.09702 | 35041 ft | 465 kts | 118° |
| 2026-04-25 13:55 | 43.34584 | 29.17411 | 35039 ft | 465 kts | 118° |
| 2026-04-25 13:55 | 43.31373 | 29.25119 | 35042 ft | 465 kts | 118° |
| 2026-04-25 13:56 | 43.28152 | 29.32820 | 35048 ft | 465 kts | 118° |
| 2026-04-25 13:56 | 43.24947 | 29.40452 | 35045 ft | 465 kts | 118° |
| 2026-04-25 13:57 | 43.21720 | 29.48131 | 35048 ft | 464 kts | 118° |
| 2026-04-25 13:57 | 43.18491 | 29.55806 | 35050 ft | 464 kts | 118° |
| 2026-04-25 13:58 | 43.15263 | 29.63447 | 35052 ft | 464 kts | 119° |
| 2026-04-25 13:58 | 43.12028 | 29.71083 | 35050 ft | 463 kts | 119° |
| 2026-04-25 13:59 | 43.08790 | 29.78709 | 35049 ft | 463 kts | 119° |
| 2026-04-25 13:59 | 43.05553 | 29.86321 | 35052 ft | 463 kts | 119° |
| 2026-04-25 14:00 | 43.03386 | 29.91403 | 35050 ft | 463 kts | 119° |
| 2026-04-25 14:00 | 42.99054 | 30.01500 | 35052 ft | 462 kts | 119° |
| 2026-04-25 14:01 | 42.95803 | 30.09070 | 35054 ft | 462 kts | 119° |
| 2026-04-25 14:01 | 42.92548 | 30.16637 | 35052 ft | 462 kts | 120° |
| 2026-04-25 14:02 | 42.89288 | 30.24194 | 35054 ft | 462 kts | 120° |
| 2026-04-25 14:02 | 42.86023 | 30.31741 | 35054 ft | 462 kts | 120° |
| 2026-04-25 14:03 | 42.82755 | 30.39281 | 35056 ft | 462 kts | 120° |
| 2026-04-25 14:03 | 42.79478 | 30.46814 | 35055 ft | 462 kts | 120° |
| 2026-04-25 14:04 | 42.76217 | 30.54293 | 35058 ft | 462 kts | 120° |
| 2026-04-25 14:04 | 42.73753 | 30.62315 | 35061 ft | 459 kts | 102° |
| 2026-04-25 14:05 | 42.72763 | 30.70874 | 35062 ft | 458 kts | 96° |
| 2026-04-25 14:05 | 42.71885 | 30.79515 | 35059 ft | 458 kts | 96° |
| 2026-04-25 14:06 | 42.71008 | 30.88041 | 35059 ft | 458 kts | 97° |
| 2026-04-25 14:06 | 42.70126 | 30.96613 | 35058 ft | 458 kts | 97° |
| 2026-04-25 14:07 | 42.69236 | 31.05196 | 35060 ft | 459 kts | 97° |
| 2026-04-25 14:07 | 42.68345 | 31.13780 | 35062 ft | 459 kts | 97° |
| 2026-04-25 14:08 | 42.67442 | 31.22358 | 35064 ft | 458 kts | 97° |
| 2026-04-25 14:08 | 42.66525 | 31.30928 | 35064 ft | 458 kts | 97° |
| 2026-04-25 14:09 | 42.65611 | 31.39495 | 35065 ft | 458 kts | 97° |
| 2026-04-25 14:09 | 42.64692 | 31.48058 | 35063 ft | 458 kts | 97° |
| 2026-04-25 14:10 | 42.63759 | 31.56615 | 35063 ft | 458 kts | 97° |
| 2026-04-25 14:10 | 42.62819 | 31.65170 | 35063 ft | 458 kts | 97° |
| 2026-04-25 14:11 | 42.61883 | 31.73722 | 35062 ft | 458 kts | 97° |
| 2026-04-25 14:11 | 42.60937 | 31.82280 | 35062 ft | 458 kts | 98° |
| 2026-04-25 14:12 | 42.59992 | 31.90767 | 35063 ft | 458 kts | 98° |
| 2026-04-25 14:12 | 42.59033 | 31.99307 | 35061 ft | 458 kts | 98° |
| 2026-04-25 14:13 | 42.58076 | 32.07855 | 35060 ft | 458 kts | 98° |
| 2026-04-25 14:13 | 42.57109 | 32.16389 | 35061 ft | 458 kts | 98° |
| 2026-04-25 14:14 | 42.56132 | 32.24911 | 35061 ft | 458 kts | 98° |
| 2026-04-25 14:14 | 42.55148 | 32.33440 | 35059 ft | 458 kts | 98° |
| 2026-04-25 14:15 | 42.54152 | 32.41966 | 35059 ft | 458 kts | 98° |
| 2026-04-25 14:15 | 42.53156 | 32.50493 | 35057 ft | 458 kts | 98° |
| 2026-04-25 14:16 | 42.52151 | 32.59018 | 35056 ft | 458 kts | 98° |
| 2026-04-25 14:16 | 42.51139 | 32.67545 | 35051 ft | 458 kts | 98° |
| 2026-04-25 14:17 | 42.50122 | 32.76076 | 35051 ft | 459 kts | 99° |
| 2026-04-25 14:17 | 42.49095 | 32.84601 | 35052 ft | 459 kts | 99° |
| 2026-04-25 14:18 | 42.48056 | 32.93142 | 35057 ft | 459 kts | 99° |
| 2026-04-25 14:18 | 42.47013 | 33.01685 | 35054 ft | 460 kts | 99° |
| 2026-04-25 14:19 | 42.45972 | 33.10233 | 35048 ft | 460 kts | 99° |
| 2026-04-25 14:19 | 42.44926 | 33.18744 | 35053 ft | 461 kts | 99° |
| 2026-04-25 14:20 | 42.43864 | 33.27315 | 35060 ft | 462 kts | 99° |
| 2026-04-25 14:20 | 42.42793 | 33.35879 | 35055 ft | 462 kts | 99° |
| 2026-04-25 14:21 | 42.41889 | 33.43065 | 35054 ft | 463 kts | 99° |
| 2026-04-25 14:21 | 42.40803 | 33.51662 | 35059 ft | 463 kts | 99° |
| 2026-04-25 14:22 | 42.39718 | 33.60199 | 35058 ft | 464 kts | 99° |
| 2026-04-25 14:22 | 42.38615 | 33.68791 | 35059 ft | 464 kts | 100° |
| 2026-04-25 14:23 | 42.37502 | 33.77402 | 35064 ft | 465 kts | 100° |
| 2026-04-25 14:23 | 42.36387 | 33.86031 | 35058 ft | 466 kts | 100° |
| 2026-04-25 14:24 | 42.35270 | 33.94647 | 35066 ft | 466 kts | 100° |
| 2026-04-25 14:24 | 42.34152 | 34.03276 | 35062 ft | 466 kts | 100° |
| 2026-04-25 14:25 | 42.33024 | 34.11912 | 35069 ft | 467 kts | 100° |
| 2026-04-25 14:25 | 42.31880 | 34.20556 | 35065 ft | 468 kts | 100° |
| 2026-04-25 14:26 | 42.30721 | 34.29208 | 35070 ft | 468 kts | 101° |
| 2026-04-25 14:26 | 42.29560 | 34.37863 | 35072 ft | 468 kts | 101° |
| 2026-04-25 14:27 | 42.28394 | 34.46517 | 35073 ft | 469 kts | 101° |
| 2026-04-25 14:27 | 42.27224 | 34.55173 | 35071 ft | 469 kts | 101° |
| 2026-04-25 14:28 | 42.26042 | 34.63831 | 35075 ft | 469 kts | 101° |
| 2026-04-25 14:28 | 42.24853 | 34.72488 | 35080 ft | 469 kts | 101° |
| 2026-04-25 14:29 | 42.23656 | 34.81137 | 35088 ft | 469 kts | 101° |
| 2026-04-25 14:29 | 42.22461 | 34.89791 | 35097 ft | 469 kts | 101° |
| 2026-04-25 14:30 | 42.21258 | 34.98394 | 35102 ft | 469 kts | 101° |
| 2026-04-25 14:30 | 42.19423 | 35.11352 | 35105 ft | 469 kts | 101° |
| 2026-04-25 14:31 | 42.18192 | 35.20004 | 35102 ft | 469 kts | 101° |
| 2026-04-25 14:31 | 42.16958 | 35.28636 | 35096 ft | 469 kts | 101° |
| 2026-04-25 14:32 | 42.15716 | 35.37285 | 35088 ft | 469 kts | 102° |
| 2026-04-25 14:32 | 42.14468 | 35.45922 | 35080 ft | 470 kts | 102° |
| 2026-04-25 14:33 | 42.13220 | 35.54556 | 35078 ft | 470 kts | 102° |
| 2026-04-25 14:33 | 42.11961 | 35.63202 | 35081 ft | 470 kts | 102° |
| 2026-04-25 14:34 | 42.10697 | 35.71849 | 35075 ft | 470 kts | 102° |
| 2026-04-25 14:34 | 42.09434 | 35.80489 | 35078 ft | 470 kts | 102° |
| 2026-04-25 14:35 | 42.08158 | 35.89123 | 35079 ft | 471 kts | 102° |
| 2026-04-25 14:35 | 42.06865 | 35.97759 | 35086 ft | 471 kts | 102° |
| 2026-04-25 14:36 | 42.05570 | 36.06394 | 35081 ft | 471 kts | 102° |
| 2026-04-25 14:36 | 42.04270 | 36.15034 | 35088 ft | 471 kts | 102° |
| 2026-04-25 14:37 | 42.02966 | 36.23667 | 35091 ft | 471 kts | 102° |
| 2026-04-25 14:37 | 42.01651 | 36.32308 | 35093 ft | 471 kts | 102° |
| 2026-04-25 14:38 | 42.00332 | 36.40936 | 35095 ft | 471 kts | 102° |
| 2026-04-25 14:38 | 41.99007 | 36.49554 | 35096 ft | 471 kts | 102° |
| 2026-04-25 14:39 | 41.97674 | 36.58192 | 35102 ft | 471 kts | 102° |
| 2026-04-25 14:39 | 41.96331 | 36.66818 | 35104 ft | 472 kts | 103° |
| 2026-04-25 14:40 | 41.94983 | 36.75443 | 35110 ft | 472 kts | 103° |
| 2026-04-25 14:40 | 41.93633 | 36.84069 | 35110 ft | 472 kts | 103° |
| 2026-04-25 14:41 | 41.92275 | 36.92689 | 35109 ft | 472 kts | 103° |
| 2026-04-25 14:41 | 41.90902 | 37.01296 | 35113 ft | 471 kts | 103° |
| 2026-04-25 14:42 | 41.90331 | 37.08563 | 35112 ft | 472 kts | 91° |
| 2026-04-25 14:42 | 41.90202 | 37.18860 | 35115 ft | 472 kts | 91° |
| 2026-04-25 14:43 | 41.90066 | 37.27671 | 35119 ft | 472 kts | 91° |
| 2026-04-25 14:43 | 41.89922 | 37.36428 | 35124 ft | 472 kts | 91° |
| 2026-04-25 14:44 | 41.89774 | 37.45284 | 35125 ft | 472 kts | 92° |
| 2026-04-25 14:44 | 41.89622 | 37.54024 | 35120 ft | 471 kts | 92° |
| 2026-04-25 14:45 | 41.89470 | 37.62811 | 35123 ft | 471 kts | 92° |
| 2026-04-25 14:45 | 41.89302 | 37.71615 | 35119 ft | 471 kts | 92° |
| 2026-04-25 14:46 | 41.89131 | 37.80458 | 35118 ft | 471 kts | 92° |
| 2026-04-25 14:46 | 41.88954 | 37.89204 | 35114 ft | 471 kts | 92° |
| 2026-04-25 14:47 | 41.88801 | 37.96578 | 35119 ft | 472 kts | 92° |
| 2026-04-25 14:47 | 41.88574 | 38.06802 | 35122 ft | 472 kts | 92° |
| 2026-04-25 14:48 | 41.88375 | 38.15606 | 35126 ft | 472 kts | 92° |
| 2026-04-25 14:48 | 41.88176 | 38.24415 | 35125 ft | 472 kts | 92° |
| 2026-04-25 14:49 | 41.87965 | 38.33225 | 35131 ft | 472 kts | 92° |
| 2026-04-25 14:49 | 41.87739 | 38.42037 | 35130 ft | 472 kts | 93° |
| 2026-04-25 14:50 | 41.87509 | 38.50848 | 35133 ft | 472 kts | 92° |
| 2026-04-25 14:50 | 41.87281 | 38.59658 | 35132 ft | 472 kts | 93° |
| 2026-04-25 14:51 | 41.87053 | 38.68468 | 35132 ft | 472 kts | 93° |
| 2026-04-25 14:51 | 41.86807 | 38.77277 | 35135 ft | 472 kts | 93° |
| 2026-04-25 14:52 | 41.86548 | 38.86087 | 35136 ft | 473 kts | 93° |
| 2026-04-25 14:52 | 41.86326 | 38.93405 | 35137 ft | 473 kts | 93° |
| 2026-04-25 14:53 | 41.86015 | 39.03717 | 35137 ft | 473 kts | 93° |
| 2026-04-25 14:53 | 41.85746 | 39.12533 | 35138 ft | 473 kts | 93° |
| 2026-04-25 14:54 | 41.85468 | 39.21342 | 35140 ft | 473 kts | 93° |
| 2026-04-25 14:54 | 41.85181 | 39.30111 | 35142 ft | 473 kts | 94° |
| 2026-04-25 14:55 | 41.84886 | 39.38931 | 35145 ft | 474 kts | 94° |
| 2026-04-25 14:55 | 41.84588 | 39.47762 | 35148 ft | 474 kts | 94° |
| 2026-04-25 14:56 | 41.84277 | 39.56599 | 35151 ft | 475 kts | 94° |
| 2026-04-25 14:56 | 41.83955 | 39.65444 | 35156 ft | 475 kts | 94° |
| 2026-04-25 14:57 | 41.83643 | 39.74308 | 35158 ft | 475 kts | 94° |
| 2026-04-25 14:57 | 41.83317 | 39.83163 | 35158 ft | 475 kts | 94° |
| 2026-04-25 14:58 | 41.82979 | 39.92014 | 35156 ft | 475 kts | 94° |
| 2026-04-25 14:58 | 41.82630 | 40.00862 | 35153 ft | 475 kts | 94° |
| 2026-04-25 14:59 | 41.82279 | 40.09700 | 35152 ft | 475 kts | 94° |
| 2026-04-25 14:59 | 41.81928 | 40.18548 | 35156 ft | 475 kts | 94° |
| 2026-04-25 15:00 | 41.81571 | 40.27400 | 35156 ft | 475 kts | 94° |
| 2026-04-25 15:00 | 41.81204 | 40.36253 | 35153 ft | 475 kts | 94° |
| 2026-04-25 15:01 | 41.80824 | 40.45101 | 35155 ft | 475 kts | 95° |
| 2026-04-25 15:01 | 41.80429 | 40.53941 | 35135 ft | 474 kts | 95° |
| 2026-04-25 15:02 | 41.80227 | 40.58379 | 34231 ft | 481 kts | 95° |
| 2026-04-25 15:02 | 41.80171 | 40.62899 | 33133 ft | 488 kts | 86° |
| 2026-04-25 15:02 | 41.80415 | 40.65885 | 32585 ft | 488 kts | 81° |
| 2026-04-25 15:02 | 41.81206 | 40.70306 | 31773 ft | 488 kts | 71° |
| 2026-04-25 15:03 | 41.82354 | 40.74573 | 31157 ft | 484 kts | 69° |
| 2026-04-25 15:03 | 41.83499 | 40.78792 | 30611 ft | 479 kts | 69° |
| 2026-04-25 15:03 | 41.84994 | 40.84344 | 29844 ft | 474 kts | 70° |
| 2026-04-25 15:03 | 41.86100 | 40.88480 | 29313 ft | 468 kts | 70° |
| 2026-04-25 15:04 | 41.86825 | 40.91193 | 28953 ft | 464 kts | 69° |
| 2026-04-25 15:04 | 41.87907 | 40.95239 | 28437 ft | 459 kts | 69° |
| 2026-04-25 15:04 | 41.88981 | 40.99257 | 27910 ft | 455 kts | 69° |
| 2026-04-25 15:04 | 41.90047 | 41.03231 | 27410 ft | 450 kts | 69° |
| 2026-04-25 15:05 | 41.91104 | 41.07161 | 26912 ft | 446 kts | 69° |
| 2026-04-25 15:05 | 41.92152 | 41.11065 | 26427 ft | 442 kts | 69° |
| 2026-04-25 15:05 | 41.93184 | 41.14927 | 25959 ft | 439 kts | 69° |
| 2026-04-25 15:06 | 41.95187 | 41.22483 | 25054 ft | 434 kts | 69° |
| 2026-04-25 15:06 | 41.96193 | 41.26283 | 24606 ft | 432 kts | 69° |
| 2026-04-25 15:06 | 41.97200 | 41.30085 | 24151 ft | 430 kts | 69° |
| 2026-04-25 15:06 | 41.98201 | 41.33862 | 23689 ft | 429 kts | 69° |
| 2026-04-25 15:07 | 41.99200 | 41.37644 | 23182 ft | 428 kts | 69° |
| 2026-04-25 15:07 | 42.00193 | 41.41403 | 22718 ft | 426 kts | 69° |
| 2026-04-25 15:07 | 42.01165 | 41.45099 | 22252 ft | 423 kts | 69° |
| 2026-04-25 15:07 | 42.02141 | 41.48826 | 21771 ft | 422 kts | 69° |
| 2026-04-25 15:08 | 42.03112 | 41.52535 | 21275 ft | 420 kts | 69° |
| 2026-04-25 15:08 | 42.04077 | 41.56228 | 20770 ft | 418 kts | 69° |
| 2026-04-25 15:08 | 42.05038 | 41.59912 | 20263 ft | 417 kts | 69° |
| 2026-04-25 15:08 | 42.05997 | 41.63583 | 19755 ft | 415 kts | 68° |
| 2026-04-25 15:09 | 42.06906 | 41.67200 | 19251 ft | 415 kts | 73° |
| 2026-04-25 15:09 | 42.07368 | 41.71024 | 18809 ft | 414 kts | 86° |
| 2026-04-25 15:09 | 42.07075 | 41.78727 | 17719 ft | 410 kts | 94° |
| 2026-04-25 15:10 | 42.06874 | 41.82362 | 17305 ft | 405 kts | 94° |
| 2026-04-25 15:10 | 42.06665 | 41.86125 | 16834 ft | 401 kts | 94° |
| 2026-04-25 15:10 | 42.06257 | 41.93533 | 15618 ft | 390 kts | 94° |
| 2026-04-25 15:11 | 42.06059 | 41.97111 | 15116 ft | 379 kts | 94° |
| 2026-04-25 15:11 | 42.05866 | 42.00638 | 14617 ft | 377 kts | 93° |
| 2026-04-25 15:11 | 42.05671 | 42.04158 | 14130 ft | 377 kts | 94° |
| 2026-04-25 15:12 | 42.05285 | 42.11049 | 13118 ft | 373 kts | 94° |
| 2026-04-25 15:12 | 42.05085 | 42.14518 | 12634 ft | 370 kts | 94° |
| 2026-04-25 15:12 | 42.04886 | 42.17954 | 12135 ft | 368 kts | 95° |
| 2026-04-25 15:12 | 42.04754 | 42.20231 | 11829 ft | 366 kts | 95° |
| 2026-04-25 15:13 | 42.04495 | 42.24780 | 11197 ft | 363 kts | 95° |
| 2026-04-25 15:13 | 42.05044 | 42.31420 | 10371 ft | 356 kts | 78° |
| 2026-04-25 15:13 | 42.05553 | 42.34657 | 10253 ft | 344 kts | 78° |
| 2026-04-25 15:14 | 42.06037 | 42.37756 | 10122 ft | 332 kts | 78° |
| 2026-04-25 15:14 | 42.06496 | 42.40715 | 9993 ft | 323 kts | 78° |
| 2026-04-25 15:14 | 42.06947 | 42.43650 | 9669 ft | 318 kts | 78° |
| 2026-04-25 15:14 | 42.07394 | 42.46559 | 9322 ft | 316 kts | 78° |
| 2026-04-25 15:15 | 42.07837 | 42.49447 | 8999 ft | 314 kts | 78° |
| 2026-04-25 15:15 | 42.08276 | 42.52303 | 8632 ft | 308 kts | 78° |
| 2026-04-25 15:15 | 42.08710 | 42.55112 | 8043 ft | 305 kts | 78° |
| 2026-04-25 15:15 | 42.09142 | 42.57901 | 7672 ft | 303 kts | 78° |
| 2026-04-25 15:16 | 42.09564 | 42.60658 | 7396 ft | 299 kts | 78° |
| 2026-04-25 15:16 | 42.09979 | 42.63391 | 7104 ft | 296 kts | 78° |
| 2026-04-25 15:16 | 42.10794 | 42.68648 | 6453 ft | 272 kts | 74° |
| 2026-04-25 15:17 | 42.13276 | 42.72170 | 5011 ft | 272 kts | 12° |
| 2026-04-25 15:17 | 42.15141 | 42.72202 | 4266 ft | 271 kts | 346° |
| 2026-04-25 15:17 | 42.16990 | 42.71677 | 3593 ft | 270 kts | 348° |
| 2026-04-25 15:18 | 42.18778 | 42.71182 | 3321 ft | 253 kts | 338° |
| 2026-04-25 15:18 | 42.20406 | 42.67801 | 2851 ft | 218 kts | 258° |
| 2026-04-25 15:18 | 42.19926 | 42.65949 | 2582 ft | 205 kts | 252° |
| 2026-04-25 15:19 | 42.19632 | 42.64119 | 2320 ft | 197 kts | 261° |
| 2026-04-25 15:19 | 42.19487 | 42.62899 | 2175 ft | 191 kts | 261° |
| 2026-04-25 15:19 | 42.19217 | 42.60660 | 1816 ft | 174 kts | 261° |
| 2026-04-25 15:19 | 42.19033 | 42.59113 | 1568 ft | 161 kts | 261° |
| 2026-04-25 15:20 | 42.18855 | 42.57674 | 1338 ft | 151 kts | 260° |
| 2026-04-25 15:20 | 42.18683 | 42.56297 | 1130 ft | 147 kts | 260° |
| 2026-04-25 15:20 | 42.18513 | 42.54942 | 893 ft | 146 kts | 260° |
| 2026-04-25 15:20 | 42.18344 | 42.53591 | 656 ft | 146 kts | 260° |
| 2026-04-25 15:21 | 42.18174 | 42.52229 | 499 ft | 147 kts | 259° |
| 2026-04-25 15:21 | 42.17995 | 42.50859 | 364 ft | 150 kts | 260° |
| 2026-04-25 15:21 | 42.17829 | 42.49482 | 160 ft | 146 kts | 261° |
| 2026-04-25 15:21 | 42.17686 | 42.48300 | 153 ft | 105 kts | 261° |
| 2026-04-25 15:22 | 42.17593 | 42.47562 | 147 ft | 50 kts | 261° |
| 2026-04-25 15:22 | 42.17545 | 42.47182 | 149 ft | 39 kts | 259° |
| 2026-04-25 15:22 | 42.17506 | 42.46896 | 151 ft | 25 kts | 261° |
| 2026-04-25 15:22 | 42.17547 | 42.46778 | 150 ft | 10 kts | 342° |
| 2026-04-25 15:23 | 42.17622 | 42.46759 | 143 ft | 14 kts | 351° |
| 2026-04-25 15:23 | 42.17732 | 42.46736 | 141 ft | 18 kts | 351° |
| 2026-04-25 15:23 | 42.17861 | 42.46690 | 140 ft | 20 kts | 322° |
| 2026-04-25 15:23 | 42.17941 | 42.46590 | 140 ft | 15 kts | 317° |
| 2026-04-25 15:24 | 42.18030 | 42.46501 | 140 ft | 17 kts | 341° |
| 2026-04-25 15:24 | 42.18079 | 42.46478 | 140 ft | 2 kts | 342° |
| 2026-04-25 15:24 | 42.18113 | 42.46511 | 140 ft | 8 kts | 65° |
| 2026-04-25 15:24 | 42.18120 | 42.46539 | 140 ft | 0 kts | 71° |